Time;durP1;ratioP1;P1;durP2;ratioP2;P2;SDS_P1;SDS_P2;PMS_P1;PMS_P2;Temp;Humidity;BMP_temperature;BMP_pressure;BME280_temperature;BME280_humidity;BME280_pressure;Samples;Min_cycle;Max_cycle;Signal;HPM_P1;HPM_P2
2023/09/25 00:01:02;;;;;;;;;;;22.70;62.50;;;;;;5043401;28;87140;-64
2023/09/25 00:03:27;;;;;;;;;;;22.70;62.40;;;;;;5046187;28;87939;-64
2023/09/25 00:05:54;;;;;;;;;;;22.70;62.40;;;;;;5043974;27;87576;-63
2023/09/25 00:08:20;;;;;;;;;;;22.70;62.40;;;;;;5042393;28;88405;-63
2023/09/25 00:10:45;;;;;;;;;;;22.70;62.50;;;;;;5042994;28;87861;-63
2023/09/25 00:13:11;;;;;;;;;;;22.70;62.50;;;;;;5043844;28;86370;-63
2023/09/25 00:15:44;;;;;;;;;;;22.70;62.50;;;;;;5043802;28;87061;-65
2023/09/25 00:18:09;;;;;;;;;;;22.70;62.50;;;;;;5042824;27;88447;-63
2023/09/25 00:20:35;;;;;;;;;;;22.70;62.50;;;;;;5043020;27;88062;-63
2023/09/25 00:23:01;;;;;;;;;;;22.70;62.50;;;;;;5046333;27;89123;-63
2023/09/25 00:25:31;;;;;;;;;;;22.70;62.50;;;;;;5043534;28;87211;-64
2023/09/25 00:27:56;;;;;;;;;;;22.60;62.40;;;;;;5042832;27;88163;-63
2023/09/25 00:30:22;;;;;;;;;;;22.60;62.50;;;;;;5043060;27;88224;-62
2023/09/25 00:32:50;;;;;;;;;;;22.70;63.20;;;;;;5041353;28;87411;-64
2023/09/25 00:35:16;;;;;;;;;;;22.60;62.50;;;;;;5043286;28;87925;-62
2023/09/25 00:37:42;;;;;;;;;;;22.60;62.00;;;;;;5043498;27;87403;-63
2023/09/25 00:40:29;;;;;;;;;;;22.60;62.50;;;;;;5039275;28;86986;-62
2023/09/25 00:42:54;;;;;;;;;;;22.60;62.50;;;;;;5042099;28;88643;-62
2023/09/25 00:45:20;;;;;;;;;;;22.60;62.50;;;;;;5039775;28;91757;-62
2023/09/25 00:47:45;;;;;;;;;;;22.60;62.50;;;;;;5042733;28;88617;-62
2023/09/25 00:50:11;;;;;;;;;;;22.60;62.50;;;;;;5042694;27;88730;-62
2023/09/25 00:52:39;;;;;;;;;;;22.60;62.60;;;;;;5042662;27;87132;-64
2023/09/25 00:55:05;;;;;;;;;;;22.50;62.50;;;;;;5043105;27;87580;-59
2023/09/25 00:57:34;;;;;;;;;;;22.60;62.60;;;;;;5042018;27;88126;-63
2023/09/25 01:00:00;;;;;;;;;;;22.50;62.60;;;;;;5039134;28;87046;-64
2023/09/25 01:02:26;;;;;;;;;;;22.50;62.60;;;;;;5042666;27;87625;-62
2023/09/25 01:04:51;;;;;;;;;;;22.50;62.60;;;;;;5042538;28;88300;-62
2023/09/25 01:07:17;;;;;;;;;;;22.50;62.60;;;;;;5045741;27;87020;-62
2023/09/25 01:09:42;;;;;;;;;;;22.50;62.60;;;;;;5041640;28;88934;-62
2023/09/25 01:12:08;;;;;;;;;;;22.50;62.60;;;;;;5042391;27;87169;-64
2023/09/25 01:14:33;;;;;;;;;;;22.50;62.60;;;;;;5042837;28;87929;-63
2023/09/25 01:16:59;;;;;;;;;;;22.50;62.60;;;;;;5042304;28;88132;-62
2023/09/25 01:19:25;;;;;;;;;;;22.50;62.70;;;;;;5042216;27;86977;-62
2023/09/25 01:21:50;;;;;;;;;;;22.50;62.60;;;;;;5042668;28;87059;-63
2023/09/25 01:24:17;;;;;;;;;;;22.40;62.60;;;;;;5042152;28;87334;-64
2023/09/25 01:26:42;;;;;;;;;;;22.40;62.60;;;;;;5043806;27;86364;-63
2023/09/25 01:29:08;;;;;;;;;;;22.40;62.60;;;;;;5046006;27;86994;-64
2023/09/25 01:31:34;;;;;;;;;;;22.50;62.70;;;;;;5042602;28;87233;-62
2023/09/25 01:33:59;;;;;;;;;;;22.40;62.70;;;;;;5037647;28;87990;-63
2023/09/25 01:36:25;;;;;;;;;;;22.40;62.70;;;;;;5042111;28;88239;-62
2023/09/25 01:38:51;;;;;;;;;;;22.40;62.60;;;;;;5042417;28;87439;-63
2023/09/25 01:41:16;;;;;;;;;;;22.40;62.60;;;;;;5042351;28;88430;-63
2023/09/25 01:43:43;;;;;;;;;;;22.40;62.70;;;;;;5037953;28;91138;-62
2023/09/25 01:46:08;;;;;;;;;;;22.40;62.70;;;;;;5042406;27;87114;-62
2023/09/25 01:48:34;;;;;;;;;;;22.40;62.70;;;;;;5042299;28;87402;-62
2023/09/25 01:50:59;;;;;;;;;;;22.40;62.80;;;;;;5045346;28;87622;-63
2023/09/25 01:53:25;;;;;;;;;;;22.40;62.80;;;;;;5042378;28;87201;-62
2023/09/25 01:55:50;;;;;;;;;;;22.30;62.70;;;;;;5041824;28;88347;-62
2023/09/25 01:58:16;;;;;;;;;;;22.30;62.70;;;;;;5041026;27;88089;-63
2023/09/25 02:00:41;;;;;;;;;;;22.30;62.70;;;;;;5042198;28;88931;-63
2023/09/25 02:03:07;;;;;;;;;;;22.30;62.80;;;;;;5041143;27;88195;-63
2023/09/25 02:05:32;;;;;;;;;;;22.30;62.80;;;;;;5044980;27;87129;-63
2023/09/25 02:07:58;;;;;;;;;;;22.30;62.80;;;;;;5045756;28;87062;-62
2023/09/25 02:10:24;;;;;;;;;;;22.30;62.80;;;;;;5045311;27;87985;-62
2023/09/25 02:12:49;;;;;;;;;;;22.30;62.80;;;;;;5048210;27;87043;-63
2023/09/25 02:15:15;;;;;;;;;;;22.30;62.80;;;;;;5045829;27;86856;-62
2023/09/25 02:17:41;;;;;;;;;;;22.30;62.80;;;;;;5045172;27;87047;-63
2023/09/25 02:20:22;;;;;;;;;;;22.30;62.80;;;;;;5045636;27;87939;-64
2023/09/25 02:22:48;;;;;;;;;;;22.20;62.80;;;;;;5041773;28;89117;-62
2023/09/25 02:25:14;;;;;;;;;;;22.30;62.80;;;;;;5045525;28;87129;-62
2023/09/25 02:27:39;;;;;;;;;;;22.30;63.50;;;;;;5044988;27;87803;-62
2023/09/25 02:30:06;;;;;;;;;;;22.20;62.90;;;;;;5045012;27;88118;-62
2023/09/25 02:32:31;;;;;;;;;;;22.20;62.90;;;;;;5047951;28;87120;-63
2023/09/25 02:34:57;;;;;;;;;;;22.20;62.90;;;;;;5044281;28;88360;-63
2023/09/25 02:37:23;;;;;;;;;;;22.20;62.80;;;;;;5045109;28;87174;-63
2023/09/25 02:39:48;;;;;;;;;;;22.20;62.90;;;;;;5045597;28;87677;-62
2023/09/25 02:42:14;;;;;;;;;;;22.20;62.90;;;;;;5044788;28;87927;-62
2023/09/25 02:44:39;;;;;;;;;;;22.20;62.90;;;;;;5044804;27;87589;-62
2023/09/25 02:47:05;;;;;;;;;;;22.20;62.90;;;;;;5044684;28;87995;-62
2023/09/25 02:49:30;;;;;;;;;;;22.20;62.90;;;;;;5044336;27;88345;-62
2023/09/25 02:51:56;;;;;;;;;;;22.20;62.90;;;;;;5045085;27;87194;-63
2023/09/25 02:54:21;;;;;;;;;;;22.10;62.80;;;;;;5047508;28;88072;-62
2023/09/25 02:56:47;;;;;;;;;;;22.10;62.80;;;;;;5044910;28;87127;-62
2023/09/25 02:59:12;;;;;;;;;;;22.20;62.90;;;;;;5044425;27;88351;-63
2023/09/25 03:01:38;;;;;;;;;;;22.10;62.90;;;;;;5043932;27;88900;-63
2023/09/25 03:04:04;;;;;;;;;;;22.10;62.90;;;;;;5044952;28;86680;-64
2023/09/25 03:06:29;;;;;;;;;;;22.10;62.90;;;;;;5044767;28;87327;-62
2023/09/25 03:08:55;;;;;;;;;;;22.10;62.90;;;;;;5044300;28;88315;-63
2023/09/25 03:11:20;;;;;;;;;;;22.10;62.80;;;;;;5043814;28;88600;-62
2023/09/25 03:13:46;;;;;;;;;;;22.10;62.90;;;;;;5044431;27;88466;-62
2023/09/25 03:16:13;;;;;;;;;;;22.10;62.40;;;;;;5047096;27;88177;-64
2023/09/25 03:18:38;;;;;;;;;;;22.10;62.90;;;;;;5044128;28;87589;-63
2023/09/25 03:21:11;;;;;;;;;;;22.10;63.00;;;;;;5044341;28;88435;-62
2023/09/25 03:23:36;;;;;;;;;;;22.10;63.00;;;;;;5040548;28;87511;-62
2023/09/25 03:26:02;;;;;;;;;;;22.10;63.00;;;;;;5044598;28;87657;-62
2023/09/25 03:28:27;;;;;;;;;;;22.10;63.00;;;;;;5044124;28;87994;-64
2023/09/25 03:30:53;;;;;;;;;;;22.00;62.90;;;;;;5044413;28;87031;-62
2023/09/25 03:33:20;;;;;;;;;;;22.00;62.90;;;;;;5044017;28;87088;-62
2023/09/25 03:35:46;;;;;;;;;;;22.00;63.00;;;;;;5042519;28;89348;-63
2023/09/25 03:38:11;;;;;;;;;;;22.00;63.00;;;;;;5047203;28;87155;-62
2023/09/25 03:40:37;;;;;;;;;;;22.00;63.10;;;;;;5040047;28;88693;-63
2023/09/25 03:43:02;;;;;;;;;;;22.00;63.00;;;;;;5044270;28;87675;-62
2023/09/25 03:45:28;;;;;;;;;;;22.00;63.10;;;;;;5043927;27;87570;-62
2023/09/25 03:47:53;;;;;;;;;;;22.00;63.00;;;;;;5043815;28;88032;-62
2023/09/25 03:50:19;;;;;;;;;;;22.00;63.10;;;;;;5043566;28;87153;-63
2023/09/25 03:52:44;;;;;;;;;;;21.90;63.10;;;;;;5043055;28;91170;-63
2023/09/25 03:55:11;;;;;;;;;;;21.90;63.10;;;;;;5043722;28;87466;-62
2023/09/25 03:57:36;;;;;;;;;;;21.90;63.10;;;;;;5043665;28;87171;-62
2023/09/25 04:00:02;;;;;;;;;;;21.90;63.10;;;;;;5045583;28;88020;-63
2023/09/25 04:02:28;;;;;;;;;;;21.90;63.10;;;;;;5043370;28;86990;-62
2023/09/25 04:04:53;;;;;;;;;;;21.90;63.20;;;;;;5043406;28;87838;-62
2023/09/25 04:07:19;;;;;;;;;;;21.80;63.20;;;;;;5043453;28;88149;-63
2023/09/25 04:09:44;;;;;;;;;;;21.90;63.20;;;;;;5043741;28;87223;-62
2023/09/25 04:12:11;;;;;;;;;;;21.80;63.20;;;;;;5043803;28;87621;-62
2023/09/25 04:14:37;;;;;;;;;;;21.90;63.30;;;;;;5043068;27;88239;-62
2023/09/25 04:17:02;;;;;;;;;;;21.90;63.20;;;;;;5044166;27;86395;-64
2023/09/25 04:19:28;;;;;;;;;;;21.90;63.20;;;;;;5043343;27;87078;-63
2023/09/25 04:21:54;;;;;;;;;;;21.90;63.30;;;;;;5046178;27;88342;-62
2023/09/25 04:24:19;;;;;;;;;;;21.80;63.30;;;;;;5042746;28;88169;-63
2023/09/25 04:26:46;;;;;;;;;;;21.80;63.30;;;;;;5043741;27;88149;-64
2023/09/25 04:29:17;;;;;;;;;;;21.80;63.30;;;;;;5042133;27;87477;-62
2023/09/25 04:31:45;;;;;;;;;;;21.80;63.30;;;;;;5040452;28;91159;-63
2023/09/25 04:34:10;;;;;;;;;;;21.80;63.30;;;;;;5042528;27;88325;-62
2023/09/25 04:36:37;;;;;;;;;;;21.80;63.30;;;;;;5041248;27;87780;-63
2023/09/25 04:39:03;;;;;;;;;;;21.80;63.40;;;;;;5040081;27;87318;-62
2023/09/25 04:41:29;;;;;;;;;;;21.80;63.40;;;;;;5045642;28;86964;-62
2023/09/25 04:43:55;;;;;;;;;;;21.80;63.40;;;;;;5043231;28;87132;-62
2023/09/25 04:46:20;;;;;;;;;;;21.80;63.40;;;;;;5040203;27;87510;-64
2023/09/25 04:48:46;;;;;;;;;;;21.80;63.40;;;;;;5043460;27;89900;-63
2023/09/25 04:51:14;;;;;;;;;;;21.80;62.80;;;;;;5042634;27;88578;-63
2023/09/25 04:53:40;;;;;;;;;;;21.70;63.30;;;;;;5042248;27;88197;-60
2023/09/25 04:56:06;;;;;;;;;;;21.70;62.80;;;;;;5040843;27;87556;-63
2023/09/25 04:58:32;;;;;;;;;;;21.70;63.30;;;;;;5038503;28;87623;-62
2023/09/25 05:00:58;;;;;;;;;;;21.80;63.30;;;;;;5040602;28;91050;-62
2023/09/25 05:03:23;;;;;;;;;;;21.70;62.90;;;;;;5044670;27;87545;-62
2023/09/25 05:05:50;;;;;;;;;;;21.70;63.30;;;;;;5040639;27;87601;-63
2023/09/25 05:08:15;;;;;;;;;;;21.70;63.40;;;;;;5039246;27;87267;-62
2023/09/25 05:10:41;;;;;;;;;;;21.70;63.40;;;;;;5042829;27;87803;-62
2023/09/25 05:13:06;;;;;;;;;;;21.70;63.40;;;;;;5040534;27;89316;-62
2023/09/25 05:15:32;;;;;;;;;;;21.70;63.40;;;;;;5040082;27;87176;-62
2023/09/25 05:17:58;;;;;;;;;;;21.60;63.50;;;;;;5039418;27;87716;-63
2023/09/25 05:20:25;;;;;;;;;;;21.70;63.60;;;;;;5041853;28;88402;-62
2023/09/25 05:22:51;;;;;;;;;;;21.60;63.50;;;;;;5043824;27;88472;-64
2023/09/25 05:25:17;;;;;;;;;;;21.60;63.50;;;;;;5042485;27;87882;-63
2023/09/25 05:27:45;;;;;;;;;;;21.60;63.50;;;;;;5039342;28;87103;-62
2023/09/25 05:30:11;;;;;;;;;;;21.60;63.50;;;;;;5042889;27;87583;-62
2023/09/25 05:32:37;;;;;;;;;;;21.60;63.50;;;;;;5039942;27;88520;-62
2023/09/25 05:35:04;;;;;;;;;;;21.60;63.50;;;;;;5036735;27;87656;-63
2023/09/25 05:37:30;;;;;;;;;;;21.60;63.00;;;;;;5041629;27;88348;-63
2023/09/25 05:39:55;;;;;;;;;;;21.60;63.60;;;;;;5041525;28;88183;-63
2023/09/25 05:42:21;;;;;;;;;;;21.60;63.60;;;;;;5045302;27;87433;-63
2023/09/25 05:44:46;;;;;;;;;;;21.60;63.60;;;;;;5040777;27;87656;-62
2023/09/25 05:47:12;;;;;;;;;;;21.60;63.60;;;;;;5044934;27;88731;-63
2023/09/25 05:49:37;;;;;;;;;;;21.50;63.60;;;;;;5040723;27;87899;-62
2023/09/25 05:52:04;;;;;;;;;;;21.60;63.60;;;;;;5039598;27;88981;-63
2023/09/25 05:54:30;;;;;;;;;;;21.60;63.50;;;;;;5039661;27;87459;-63
2023/09/25 05:56:55;;;;;;;;;;;21.60;63.60;;;;;;5042096;27;87026;-62
2023/09/25 05:59:21;;;;;;;;;;;21.60;63.60;;;;;;5040053;27;88538;-63
2023/09/25 06:01:47;;;;;;;;;;;21.60;63.60;;;;;;5035895;27;88125;-62
2023/09/25 06:04:12;;;;;;;;;;;21.60;63.10;;;;;;5041762;28;87963;-62
2023/09/25 06:06:38;;;;;;;;;;;21.60;63.60;;;;;;5040502;27;88863;-62
2023/09/25 06:09:08;;;;;;;;;;;21.60;63.70;;;;;;5046224;27;87129;-62
2023/09/25 06:11:35;;;;;;;;;;;21.60;64.30;;;;;;5035537;27;87972;-63
2023/09/25 06:14:01;;;;;;;;;;;21.50;63.70;;;;;;5041965;28;87160;-62
2023/09/25 06:16:26;;;;;;;;;;;21.60;63.80;;;;;;5041001;28;87733;-64
2023/09/25 06:18:52;;;;;;;;;;;21.60;63.70;;;;;;5040016;27;86603;-63
2023/09/25 06:21:17;;;;;;;;;;;21.50;63.70;;;;;;5039374;28;87194;-63
2023/09/25 06:23:43;;;;;;;;;;;21.50;63.70;;;;;;5041918;28;87803;-64
2023/09/25 06:26:08;;;;;;;;;;;21.50;63.90;;;;;;5039517;27;89300;-64
2023/09/25 06:28:34;;;;;;;;;;;21.50;63.70;;;;;;5039474;28;87103;-62
2023/09/25 06:31:00;;;;;;;;;;;21.50;63.80;;;;;;5040292;27;89535;-63
2023/09/25 06:33:25;;;;;;;;;;;21.50;63.80;;;;;;5041494;28;87424;-64
2023/09/25 06:35:52;;;;;;;;;;;21.50;63.90;;;;;;5039732;27;87846;-62
2023/09/25 06:38:18;;;;;;;;;;;21.50;63.80;;;;;;5036670;27;88240;-62
2023/09/25 06:40:44;;;;;;;;;;;21.50;63.90;;;;;;5042490;27;87217;-63
2023/09/25 06:43:10;;;;;;;;;;;21.50;63.80;;;;;;5041957;27;87066;-63
2023/09/25 06:45:35;;;;;;;;;;;21.60;63.80;;;;;;5041945;27;88270;-64
2023/09/25 06:48:01;;;;;;;;;;;21.50;63.80;;;;;;5042010;27;87157;-63
2023/09/25 06:50:26;;;;;;;;;;;21.50;63.80;;;;;;5040689;27;90050;-62
2023/09/25 06:52:52;;;;;;;;;;;21.50;63.80;;;;;;5045030;28;87198;-62
2023/09/25 06:55:18;;;;;;;;;;;21.60;63.70;;;;;;5043345;27;90789;-63
2023/09/25 06:57:43;;;;;;;;;;;21.60;63.70;;;;;;5041943;27;88312;-62
2023/09/25 07:00:09;;;;;;;;;;;21.60;63.70;;;;;;5044389;28;87413;-63
2023/09/25 07:02:36;;;;;;;;;;;21.60;63.70;;;;;;5044087;27;87306;-64
2023/09/25 07:05:02;;;;;;;;;;;21.60;63.60;;;;;;5042824;27;88723;-63
2023/09/25 07:07:29;;;;;;;;;;;21.50;63.60;;;;;;5040307;28;86448;-63
2023/09/25 07:09:55;;;;;;;;;;;21.50;63.60;;;;;;5044709;28;87053;-63
2023/09/25 07:12:20;;;;;;;;;;;21.50;63.70;;;;;;5046343;28;88224;-63
2023/09/25 07:14:55;;;;;;;;;;;21.50;63.50;;;;;;5045006;27;88138;-62
2023/09/25 07:17:21;;;;;;;;;;;21.60;63.60;;;;;;5043561;27;89012;-61
2023/09/25 07:19:51;;;;;;;;;;;21.50;63.60;;;;;;5044539;27;87098;-63
2023/09/25 07:22:17;;;;;;;;;;;21.60;63.50;;;;;;5041045;27;87817;-63
2023/09/25 07:24:42;;;;;;;;;;;21.60;63.50;;;;;;5041948;27;88222;-63
2023/09/25 07:27:08;;;;;;;;;;;21.60;63.50;;;;;;5042233;28;87159;-63
2023/09/25 07:29:33;;;;;;;;;;;21.60;63.40;;;;;;5044541;28;87084;-62
2023/09/25 07:31:59;;;;;;;;;;;21.50;63.30;;;;;;5044953;27;87829;-61
2023/09/25 07:34:24;;;;;;;;;;;21.60;63.30;;;;;;5044140;27;87003;-63
2023/09/25 07:36:50;;;;;;;;;;;21.60;63.30;;;;;;5043274;27;88306;-65
2023/09/25 07:39:18;;;;;;;;;;;21.60;63.30;;;;;;5043048;28;88480;-62
2023/09/25 07:41:45;;;;;;;;;;;21.60;62.90;;;;;;5039729;27;88881;-62
2023/09/25 07:44:12;;;;;;;;;;;21.60;63.30;;;;;;5036620;27;88463;-64
2023/09/25 07:46:39;;;;;;;;;;;21.60;63.30;;;;;;5044138;28;87344;-62
2023/09/25 07:49:05;;;;;;;;;;;21.60;63.30;;;;;;5043069;27;87082;-63
2023/09/25 07:51:32;;;;;;;;;;;21.60;63.10;;;;;;5042234;27;87996;-63
2023/09/25 07:53:58;;;;;;;;;;;21.60;63.10;;;;;;5040558;27;87130;-62
2023/09/25 07:56:24;;;;;;;;;;;21.60;63.00;;;;;;5045513;28;89896;-63
2023/09/25 07:58:49;;;;;;;;;;;21.60;62.90;;;;;;5042239;27;87085;-64
2023/09/25 08:01:15;;;;;;;;;;;21.60;62.90;;;;;;5040203;27;87688;-63
2023/09/25 08:03:41;;;;;;;;;;;21.60;62.90;;;;;;5038784;27;88242;-62
2023/09/25 08:06:07;;;;;;;;;;;21.60;62.80;;;;;;5043358;27;87166;-63
2023/09/25 08:08:33;;;;;;;;;;;21.60;62.90;;;;;;5041579;27;87776;-63
2023/09/25 08:10:59;;;;;;;;;;;21.60;62.90;;;;;;5040668;27;88369;-63
2023/09/25 08:13:25;;;;;;;;;;;21.60;62.90;;;;;;5043829;28;87093;-62
2023/09/25 08:15:51;;;;;;;;;;;21.60;62.80;;;;;;5043149;28;88048;-65
2023/09/25 08:18:16;;;;;;;;;;;21.60;62.90;;;;;;5044108;27;88780;-63
2023/09/25 08:20:42;;;;;;;;;;;21.60;62.80;;;;;;5040128;27;87559;-63
2023/09/25 08:23:09;;;;;;;;;;;21.50;62.70;;;;;;5042996;28;88939;-64
2023/09/25 08:25:34;;;;;;;;;;;21.60;62.70;;;;;;5043032;28;87161;-63
2023/09/25 08:28:00;;;;;;;;;;;21.60;62.80;;;;;;5041234;27;88072;-62
2023/09/25 08:30:26;;;;;;;;;;;21.50;62.70;;;;;;5041396;27;88420;-62
2023/09/25 08:32:52;;;;;;;;;;;21.60;62.80;;;;;;5043388;28;87152;-63
2023/09/25 08:35:18;;;;;;;;;;;21.60;62.70;;;;;;5042320;27;87658;-65
2023/09/25 08:37:44;;;;;;;;;;;21.50;62.60;;;;;;5040370;27;88560;-63
2023/09/25 08:40:09;;;;;;;;;;;21.50;62.50;;;;;;5046514;27;87131;-64
2023/09/25 08:42:36;;;;;;;;;;;21.50;62.60;;;;;;5042928;27;87959;-63
2023/09/25 08:45:03;;;;;;;;;;;21.60;62.60;;;;;;5042222;27;86385;-63
2023/09/25 08:47:30;;;;;;;;;;;21.60;62.40;;;;;;5039214;27;87867;-62
2023/09/25 08:49:55;;;;;;;;;;;21.60;62.40;;;;;;5041674;28;88252;-63
2023/09/25 08:52:22;;;;;;;;;;;21.60;62.20;;;;;;5042021;28;88167;-64
2023/09/25 08:54:51;;;;;;;;;;;21.60;62.20;;;;;;5042973;27;88895;-63
2023/09/25 08:57:17;;;;;;;;;;;21.60;62.30;;;;;;5037248;27;88364;-63
2023/09/25 08:59:46;;;;;;;;;;;21.60;62.20;;;;;;5046045;28;87000;-63
2023/09/25 09:02:13;;;;;;;;;;;21.60;62.20;;;;;;5041132;27;88229;-62
2023/09/25 09:04:38;;;;;;;;;;;21.60;62.00;;;;;;5043434;27;87114;-62
2023/09/25 09:07:04;;;;;;;;;;;21.60;62.00;;;;;;5041002;27;87704;-62
2023/09/25 09:09:30;;;;;;;;;;;21.60;62.00;;;;;;5042828;28;87430;-61
2023/09/25 09:11:57;;;;;;;;;;;21.70;62.10;;;;;;5041172;27;87192;-63
2023/09/25 09:14:42;;;;;;;;;;;21.60;62.60;;;;;;5040410;27;87773;-64
2023/09/25 09:17:09;;;;;;;;;;;21.60;62.00;;;;;;5036044;28;89120;-62
2023/09/25 09:19:35;;;;;;;;;;;21.60;61.90;;;;;;5042714;28;87000;-61
2023/09/25 09:22:05;;;;;;;;;;;21.60;61.80;;;;;;5042853;27;87593;-63
2023/09/25 09:24:32;;;;;;;;;;;21.60;61.80;;;;;;5037412;27;87226;-63
2023/09/25 09:26:58;;;;;;;;;;;21.60;61.50;;;;;;5038960;28;87895;-63
2023/09/25 09:29:23;;;;;;;;;;;21.60;61.50;;;;;;5041783;27;88446;-63
2023/09/25 09:31:53;;;;;;;;;;;21.60;61.50;;;;;;5040010;27;87096;-64
2023/09/25 09:34:21;;;;;;;;;;;21.70;61.50;;;;;;5038206;27;87425;-62
2023/09/25 09:36:51;;;;;;;;;;;21.60;61.40;;;;;;5041276;27;88079;-62
2023/09/25 09:39:25;;;;;;;;;;;21.70;61.50;;;;;;5036096;27;87215;-63
2023/09/25 09:41:55;;;;;;;;;;;21.60;61.50;;;;;;5038323;27;89225;-64
2023/09/25 09:44:20;;;;;;;;;;;21.60;61.40;;;;;;5041061;28;88202;-62
2023/09/25 09:46:47;;;;;;;;;;;21.70;61.40;;;;;;5042277;27;87289;-63
2023/09/25 09:49:19;;;;;;;;;;;21.60;61.30;;;;;;5038488;27;91297;-65
2023/09/25 09:51:45;;;;;;;;;;;21.60;61.30;;;;;;5035274;27;87947;-62
2023/09/25 09:54:11;;;;;;;;;;;21.70;61.40;;;;;;5042333;28;87461;-64
2023/09/25 09:56:38;;;;;;;;;;;21.60;61.30;;;;;;5041743;27;88069;-62
2023/09/25 09:59:04;;;;;;;;;;;21.60;61.30;;;;;;5040179;27;86485;-63
2023/09/25 10:01:30;;;;;;;;;;;21.60;61.20;;;;;;5038203;27;88013;-63
2023/09/25 10:03:56;;;;;;;;;;;21.70;61.20;;;;;;5041890;28;87680;-62
2023/09/25 10:06:25;;;;;;;;;;;21.70;61.00;;;;;;5043160;27;88334;-65
2023/09/25 10:09:20;;;;;;;;;;;21.70;61.00;;;;;;5038949;27;89308;-64
2023/09/25 10:11:47;;;;;;;;;;;21.70;61.10;;;;;;5028208;28;87179;-62
2023/09/25 10:14:13;;;;;;;;;;;21.70;60.90;;;;;;5040654;27;89190;-62
2023/09/25 10:16:51;;;;;;;;;;;21.70;60.90;;;;;;5040167;27;88635;-63
2023/09/25 10:19:20;;;;;;;;;;;21.70;60.90;;;;;;5039805;27;87303;-63
2023/09/25 10:22:04;;;;;;;;;;;21.70;60.70;;;;;;5037170;28;87416;-64
2023/09/25 10:24:29;;;;;;;;;;;21.70;60.80;;;;;;5040473;27;87676;-62
2023/09/25 10:26:56;;;;;;;;;;;21.70;60.60;;;;;;5043366;27;87405;-64
2023/09/25 10:29:22;;;;;;;;;;;21.70;60.60;;;;;;5048062;27;87673;-62
2023/09/25 10:31:48;;;;;;;;;;;21.70;60.60;;;;;;5044532;28;88061;-64
2023/09/25 10:34:14;;;;;;;;;;;21.70;60.70;;;;;;5040492;27;89186;-62
2023/09/25 10:36:40;;;;;;;;;;;21.70;60.40;;;;;;5041181;27;88131;-63
2023/09/25 10:39:08;;;;;;;;;;;21.70;60.40;;;;;;5043812;28;87106;-63
2023/09/25 10:41:33;;;;;;;;;;;21.70;60.30;;;;;;5042631;27;87554;-62
2023/09/25 10:43:59;;;;;;;;;;;21.70;60.90;;;;;;5042660;27;88333;-64
2023/09/25 10:46:25;;;;;;;;;;;21.70;60.20;;;;;;5043242;27;87463;-63
2023/09/25 10:48:50;;;;;;;;;;;21.70;60.30;;;;;;5047815;28;87113;-63
2023/09/25 10:51:16;;;;;;;;;;;21.70;60.10;;;;;;5044501;27;86986;-64
2023/09/25 10:53:43;;;;;;;;;;;21.70;59.90;;;;;;5042701;27;87490;-62
2023/09/25 10:56:11;;;;;;;;;;;21.70;60.10;;;;;;5042300;28;90400;-64
2023/09/25 10:58:37;;;;;;;;;;;21.70;60.00;;;;;;5041062;28;87123;-63
2023/09/25 11:01:03;;;;;;;;;;;21.80;60.00;;;;;;5042874;27;87543;-64
2023/09/25 11:03:29;;;;;;;;;;;21.80;59.80;;;;;;5042225;27;88264;-62
2023/09/25 11:05:55;;;;;;;;;;;21.80;59.80;;;;;;5043966;27;87073;-65
2023/09/25 11:08:21;;;;;;;;;;;21.80;59.70;;;;;;5044412;27;87611;-63
2023/09/25 11:10:46;;;;;;;;;;;21.80;59.50;;;;;;5045954;27;87364;-63
2023/09/25 11:13:12;;;;;;;;;;;21.80;59.70;;;;;;5042495;27;87987;-64
2023/09/25 11:15:38;;;;;;;;;;;21.80;59.40;;;;;;5044178;28;89086;-65
2023/09/25 11:18:06;;;;;;;;;;;21.80;59.50;;;;;;5044328;27;87116;-64
2023/09/25 11:20:33;;;;;;;;;;;21.80;59.40;;;;;;5041637;27;88110;-64
2023/09/25 11:23:13;;;;;;;;;;;21.80;59.30;;;;;;5041479;27;88019;-62
2023/09/25 11:25:41;;;;;;;;;;;21.90;59.40;;;;;;5041541;28;87112;-64
2023/09/25 11:28:07;;;;;;;;;;;21.80;59.10;;;;;;5043427;28;87990;-63
2023/09/25 11:30:32;;;;;;;;;;;21.90;59.30;;;;;;5041140;27;88430;-63
2023/09/25 11:33:08;;;;;;;;;;;21.90;58.80;;;;;;5043083;27;87269;-63
2023/09/25 11:35:37;;;;;;;;;;;21.90;59.00;;;;;;5041009;28;88246;-63
2023/09/25 11:38:11;;;;;;;;;;;21.90;59.20;;;;;;5042973;27;86629;-63
2023/09/25 11:40:38;;;;;;;;;;;21.90;59.00;;;;;;5042397;27;87935;-64
2023/09/25 11:43:03;;;;;;;;;;;21.90;59.00;;;;;;5042946;27;88633;-64
2023/09/25 11:45:30;;;;;;;;;;;22.00;59.00;;;;;;5043297;27;88432;-65
2023/09/25 11:47:56;;;;;;;;;;;21.90;58.80;;;;;;5042742;27;88526;-63
2023/09/25 11:50:21;;;;;;;;;;;21.90;58.90;;;;;;5040541;27;88371;-64
2023/09/25 11:52:47;;;;;;;;;;;22.00;58.70;;;;;;5042375;28;87147;-63
2023/09/25 11:55:14;;;;;;;;;;;21.90;58.80;;;;;;5046831;27;87772;-61
2023/09/25 11:57:44;;;;;;;;;;;21.90;59.00;;;;;;5041057;27;87337;-64
2023/09/25 12:00:10;;;;;;;;;;;21.90;58.70;;;;;;5039387;27;87409;-63
2023/09/25 12:02:36;;;;;;;;;;;21.90;59.50;;;;;;5041889;28;91723;-63
2023/09/25 12:05:03;;;;;;;;;;;22.00;58.30;;;;;;5043145;27;87148;-63
2023/09/25 12:07:31;;;;;;;;;;;21.90;58.90;;;;;;5044908;27;88140;-63
2023/09/25 12:09:56;;;;;;;;;;;21.90;58.80;;;;;;5042170;27;89536;-64
2023/09/25 12:12:23;;;;;;;;;;;22.00;58.70;;;;;;5043713;27;87075;-63
2023/09/25 12:14:49;;;;;;;;;;;22.00;58.60;;;;;;5043095;27;87945;-64
2023/09/25 12:17:16;;;;;;;;;;;22.00;58.70;;;;;;5046959;27;88089;-63
2023/09/25 12:19:41;;;;;;;;;;;22.00;58.70;;;;;;5039331;28;88010;-63
2023/09/25 12:22:07;;;;;;;;;;;22.00;58.50;;;;;;5043298;27;88182;-62
2023/09/25 12:24:32;;;;;;;;;;;22.00;58.70;;;;;;5042421;27;87182;-63
2023/09/25 12:26:58;;;;;;;;;;;22.00;58.70;;;;;;5042116;27;87677;-62
2023/09/25 12:29:24;;;;;;;;;;;22.00;58.60;;;;;;5040024;27;88535;-63
2023/09/25 12:31:49;;;;;;;;;;;22.00;58.60;;;;;;5043503;28;87074;-61
2023/09/25 12:34:16;;;;;;;;;;;22.00;58.90;;;;;;5042116;27;88138;-64
2023/09/25 12:36:41;;;;;;;;;;;22.10;58.90;;;;;;5043640;27;88278;-63
2023/09/25 12:39:07;;;;;;;;;;;22.10;58.90;;;;;;5041830;27;87159;-63
2023/09/25 12:41:32;;;;;;;;;;;22.10;59.00;;;;;;5042704;28;88613;-63
2023/09/25 12:43:58;;;;;;;;;;;22.10;59.10;;;;;;5041265;28;87076;-62
2023/09/25 12:46:23;;;;;;;;;;;22.10;59.20;;;;;;5041051;28;88024;-63
2023/09/25 12:48:49;;;;;;;;;;;22.10;59.40;;;;;;5042505;27;88241;-62
2023/09/25 12:51:15;;;;;;;;;;;22.10;59.50;;;;;;5043573;28;86390;-62
2023/09/25 12:53:40;;;;;;;;;;;22.10;59.60;;;;;;5041228;27;88265;-63
2023/09/25 12:56:06;;;;;;;;;;;22.10;59.70;;;;;;5041649;27;87192;-62
2023/09/25 12:58:32;;;;;;;;;;;22.10;59.80;;;;;;5044714;28;88282;-62
2023/09/25 13:00:57;;;;;;;;;;;22.10;59.80;;;;;;5042252;28;88398;-62
2023/09/25 13:03:23;;;;;;;;;;;22.10;59.80;;;;;;5039728;27;88202;-63
2023/09/25 13:05:48;;;;;;;;;;;22.10;60.00;;;;;;5039231;28;87674;-62
2023/09/25 13:08:14;;;;;;;;;;;22.10;60.10;;;;;;5041894;28;88231;-63
2023/09/25 13:10:39;;;;;;;;;;;22.10;60.10;;;;;;5041549;27;87071;-61
2023/09/25 13:13:05;;;;;;;;;;;22.10;60.10;;;;;;5041302;27;87920;-63
2023/09/25 13:15:30;;;;;;;;;;;22.10;60.10;;;;;;5036970;27;89593;-63
2023/09/25 13:17:56;;;;;;;;;;;22.10;60.30;;;;;;5042862;27;87225;-65
2023/09/25 13:20:21;;;;;;;;;;;22.10;60.10;;;;;;5044983;27;87150;-63
2023/09/25 13:22:47;;;;;;;;;;;22.20;60.40;;;;;;5036883;27;88650;-64
2023/09/25 13:25:13;;;;;;;;;;;22.20;60.50;;;;;;5040849;27;88556;-62
2023/09/25 13:27:38;;;;;;;;;;;22.20;60.40;;;;;;5042252;28;88263;-64
2023/09/25 13:30:11;;;;;;;;;;;22.20;60.50;;;;;;5041044;27;87077;-63
2023/09/25 13:32:37;;;;;;;;;;;22.20;60.50;;;;;;5039690;27;88819;-63
2023/09/25 13:35:02;;;;;;;;;;;22.20;60.50;;;;;;5037152;28;90786;-63
2023/09/25 13:37:28;;;;;;;;;;;22.20;60.70;;;;;;5042468;27;87070;-64
2023/09/25 13:39:56;;;;;;;;;;;22.20;60.70;;;;;;5040483;28;87888;-63
2023/09/25 13:42:22;;;;;;;;;;;22.30;60.60;;;;;;5042362;27;88374;-63
2023/09/25 13:44:47;;;;;;;;;;;22.20;60.80;;;;;;5042400;28;87831;-62
2023/09/25 13:47:13;;;;;;;;;;;22.20;60.70;;;;;;5041227;27;89016;-65
2023/09/25 13:49:43;;;;;;;;;;;22.30;60.90;;;;;;5038923;27;87165;-64
2023/09/25 13:52:09;;;;;;;;;;;22.30;61.00;;;;;;5041519;27;88175;-63
2023/09/25 13:54:34;;;;;;;;;;;22.20;60.80;;;;;;5041464;27;88329;-63
2023/09/25 13:57:00;;;;;;;;;;;22.20;60.70;;;;;;5041329;27;87533;-65
2023/09/25 13:59:25;;;;;;;;;;;22.20;60.90;;;;;;5038880;27;87513;-62
2023/09/25 14:01:51;;;;;;;;;;;22.30;61.30;;;;;;5042302;27;87240;-64
2023/09/25 14:04:16;;;;;;;;;;;22.30;61.00;;;;;;5049132;28;86428;-62
2023/09/25 14:06:42;;;;;;;;;;;22.30;61.00;;;;;;5043837;28;88736;-64
2023/09/25 14:09:10;;;;;;;;;;;22.30;61.10;;;;;;5043372;27;87096;-64
2023/09/25 14:11:36;;;;;;;;;;;22.30;61.10;;;;;;5041216;28;88097;-63